createdAt,value
2023-04-06T00:00:13.375Z,59.00
2023-04-06T00:02:17.574Z,58.10
2023-04-06T00:04:21.056Z,60.40
2023-04-06T00:06:23.851Z,58.60
2023-04-06T00:08:27.161Z,62.90
2023-04-06T00:10:30.391Z,66.70
2023-04-06T00:12:33.178Z,75.30
2023-04-06T00:14:35.941Z,78.30
2023-04-06T00:16:38.730Z,82.90
2023-04-06T00:18:42.844Z,82.70
2023-04-06T00:20:45.593Z,86.60
2023-04-06T00:22:48.387Z,83.20
2023-04-06T00:24:51.167Z,83.20
2023-04-06T00:26:53.943Z,84.80
2023-04-06T00:28:56.696Z,89.30
2023-04-06T00:30:59.454Z,84.00
2023-04-06T00:33:02.574Z,85.90
2023-04-06T00:35:07.440Z,86.00
2023-04-06T00:37:10.648Z,89.10
2023-04-06T00:39:13.405Z,88.30
2023-04-06T00:41:16.185Z,87.10
2023-04-06T00:43:18.992Z,89.10
2023-04-06T00:45:21.807Z,89.10
2023-04-06T00:47:26.092Z,89.00
2023-04-06T00:49:28.917Z,88.90
2023-04-06T00:51:33.070Z,91.70
2023-04-06T00:53:35.854Z,94.50
2023-04-06T00:55:38.633Z,96.70
2023-04-06T00:57:41.442Z,99.70
2023-04-06T00:59:44.227Z,99.90
2023-04-06T01:01:47.087Z,99.90
2023-04-06T01:03:51.152Z,99.90
2023-04-06T01:05:59.047Z,99.90
2023-04-06T01:08:03.287Z,99.90
2023-04-06T01:10:06.831Z,99.90
2023-04-06T01:12:09.653Z,99.90
2023-04-06T01:14:12.409Z,99.90
2023-04-06T01:16:15.221Z,99.90
2023-04-06T01:18:18.028Z,99.90
2023-04-06T01:20:21.067Z,99.90
2023-04-06T01:22:26.031Z,99.90
2023-04-06T01:24:28.795Z,99.90
2023-04-06T01:26:31.692Z,99.90
2023-04-06T01:28:34.509Z,99.90
2023-04-06T01:30:37.261Z,99.90
2023-04-06T01:32:40.119Z,99.90
2023-04-06T01:34:42.914Z,99.90
2023-04-06T01:36:45.681Z,99.90
2023-04-06T01:38:49.787Z,99.90
2023-04-06T01:40:52.556Z,99.90
2023-04-06T01:42:55.356Z,99.90
2023-04-06T01:44:58.131Z,99.90
2023-04-06T01:47:01.067Z,99.90
2023-04-06T01:49:03.973Z,99.90
2023-04-06T01:51:06.823Z,99.90
2023-04-06T01:53:09.605Z,99.90
2023-04-06T01:55:13.703Z,99.90
2023-04-06T01:57:16.479Z,99.90
2023-04-06T01:59:19.247Z,99.90
2023-04-06T02:01:22.214Z,99.90
2023-04-06T02:03:25.063Z,99.90
2023-04-06T02:05:27.865Z,99.90
2023-04-06T02:07:30.841Z,99.90
2023-04-06T02:09:33.615Z,99.90
2023-04-06T02:11:37.730Z,99.90
2023-04-06T02:13:40.651Z,99.90
2023-04-06T02:15:43.403Z,99.90
2023-04-06T02:17:46.404Z,99.90
2023-04-06T02:19:49.199Z,99.90
2023-04-06T02:21:51.963Z,99.90
2023-04-06T02:23:54.933Z,99.90
2023-04-06T02:25:57.693Z,99.90
2023-04-06T02:28:01.923Z,99.90
2023-04-06T02:30:04.911Z,99.90
2023-04-06T02:32:07.841Z,99.90
2023-04-06T02:34:12.959Z,99.90
2023-04-06T02:36:15.767Z,99.90
2023-04-06T02:38:18.556Z,99.90
2023-04-06T02:40:21.370Z,99.90
2023-04-06T02:42:24.177Z,99.90
2023-04-06T02:44:28.322Z,99.90
2023-04-06T02:46:31.156Z,99.90
2023-04-06T02:48:37.013Z,99.90
2023-04-06T02:50:39.777Z,99.90
2023-04-06T02:52:43.198Z,99.90
2023-04-06T02:54:46.057Z,99.90
2023-04-06T02:56:48.838Z,99.90
2023-04-06T02:58:51.714Z,99.90
2023-04-06T03:00:55.956Z,99.90
2023-04-06T03:02:58.894Z,99.90
2023-04-06T03:05:02.406Z,99.90
2023-04-06T03:07:05.286Z,99.90
2023-04-06T03:09:08.730Z,99.90
2023-04-06T03:11:11.690Z,99.90
2023-04-06T03:13:14.489Z,99.90
2023-04-06T03:15:17.271Z,99.90
2023-04-06T03:17:21.388Z,99.90
2023-04-06T03:19:24.290Z,99.90
2023-04-06T03:21:27.090Z,99.90
2023-04-06T03:23:29.915Z,99.90
2023-04-06T03:25:32.682Z,99.90
2023-04-06T03:27:35.457Z,99.90
2023-04-06T03:29:38.246Z,99.90
2023-04-06T03:31:41.032Z,99.90
2023-04-06T03:33:45.209Z,99.90
2023-04-06T03:35:48.009Z,99.90
2023-04-06T03:37:50.790Z,99.90
2023-04-06T03:39:54.326Z,99.90
2023-04-06T03:41:57.091Z,99.90
2023-04-06T03:43:59.883Z,99.90
2023-04-06T03:46:02.662Z,99.90
2023-04-06T03:48:05.593Z,99.90
2023-04-06T03:50:10.918Z,99.90
2023-04-06T03:52:13.684Z,99.90
2023-04-06T03:54:16.436Z,99.90
2023-04-06T03:56:19.366Z,99.90
2023-04-06T03:58:22.140Z,99.90
2023-04-06T04:00:25.085Z,99.90
2023-04-06T04:02:27.932Z,99.90
2023-04-06T04:04:30.786Z,99.90
2023-04-06T04:06:34.804Z,99.90
2023-04-06T04:08:37.537Z,99.90
2023-04-06T04:10:40.242Z,99.90
2023-04-06T04:12:42.948Z,99.90
2023-04-06T04:14:45.818Z,99.90
2023-04-06T04:16:48.569Z,99.90
2023-04-06T04:18:51.307Z,99.90
2023-04-06T04:20:54.022Z,99.90
2023-04-06T04:22:58.056Z,99.90
2023-04-06T04:25:00.956Z,99.90
2023-04-06T04:27:03.711Z,99.90
2023-04-06T04:29:06.734Z,99.90
2023-04-06T04:31:09.657Z,99.90
2023-04-06T04:33:12.434Z,99.40
2023-04-06T04:35:15.478Z,99.00
2023-04-06T04:37:18.245Z,97.20
2023-04-06T04:39:22.372Z,96.30
2023-04-06T04:41:25.388Z,94.80
2023-04-06T04:43:28.883Z,93.80
2023-04-06T04:45:32.612Z,92.50
2023-04-06T04:47:35.419Z,92.20
2023-04-06T04:49:38.222Z,90.60
2023-04-06T04:51:41.202Z,88.60
2023-04-06T04:53:43.967Z,88.80
2023-04-06T04:55:48.076Z,88.60
2023-04-06T04:57:50.863Z,88.60
2023-04-06T04:59:54.594Z,88.60
2023-04-06T05:01:58.332Z,88.70
2023-04-06T05:04:01.178Z,88.80
2023-04-06T05:06:04.147Z,89.00
2023-04-06T05:08:06.964Z,88.70
2023-04-06T05:10:10.460Z,88.80
2023-04-06T05:12:14.583Z,88.90
2023-04-06T05:14:18.343Z,88.80
2023-04-06T05:16:21.180Z,88.80
2023-04-06T05:18:24.050Z,85.50
2023-04-06T05:20:26.886Z,77.80
2023-04-06T05:22:29.701Z,76.10
2023-04-06T05:24:32.627Z,77.80
2023-04-06T05:26:35.378Z,74.40
2023-04-06T05:28:39.504Z,71.70
2023-04-06T05:30:42.490Z,68.70
2023-04-06T05:32:45.465Z,66.20
2023-04-06T05:34:48.345Z,64.80
2023-04-06T05:36:51.097Z,65.00
2023-04-06T05:38:53.940Z,62.90
2023-04-06T05:40:56.746Z,61.60
2023-04-06T05:42:59.522Z,62.70
2023-04-06T05:45:03.684Z,60.50
2023-04-06T05:47:06.469Z,60.60
2023-04-06T05:49:09.466Z,59.30
2023-04-06T05:51:12.497Z,58.40
2023-04-06T05:53:15.287Z,60.30
2023-04-06T05:55:18.201Z,55.30
2023-04-06T05:57:20.973Z,55.50
2023-04-06T05:59:24.810Z,53.20
2023-04-06T06:01:30.035Z,52.40
2023-04-06T06:03:32.944Z,51.00
2023-04-06T06:05:35.771Z,48.20
2023-04-06T06:07:38.552Z,47.30
2023-04-06T06:09:41.522Z,48.50
2023-04-06T06:11:44.311Z,47.40
2023-04-06T06:13:47.108Z,43.70
2023-04-06T06:15:49.996Z,44.50
2023-04-06T06:17:54.137Z,45.20
2023-04-06T06:19:56.975Z,40.90
2023-04-06T06:22:00.937Z,37.50
2023-04-06T06:24:06.634Z,36.20
2023-04-06T06:26:09.390Z,35.20
2023-04-06T06:28:12.144Z,33.50
2023-04-06T06:30:15.829Z,31.00
2023-04-06T06:32:18.641Z,32.20
2023-04-06T06:34:22.754Z,29.10
2023-04-06T06:36:26.430Z,26.10
2023-04-06T06:38:29.207Z,29.70
2023-04-06T06:40:32.037Z,26.50
2023-04-06T06:42:34.817Z,26.40
2023-04-06T06:44:37.638Z,26.50
2023-04-06T06:46:40.478Z,26.40
2023-04-06T06:48:43.263Z,26.50
2023-04-06T06:50:49.055Z,26.40
2023-04-06T06:52:51.855Z,26.70
2023-04-06T06:54:56.482Z,26.70
2023-04-06T06:57:01.281Z,26.80
2023-04-06T06:59:04.122Z,23.80
2023-04-06T07:01:07.381Z,22.00
2023-04-06T07:03:10.280Z,23.30
2023-04-06T07:05:26.911Z,22.80
2023-04-06T07:07:33.711Z,23.20
2023-04-06T07:09:37.165Z,19.60
2023-04-06T07:11:39.953Z,14.80
2023-04-06T07:13:42.734Z,15.30
2023-04-06T07:15:45.698Z,10.90
2023-04-06T07:17:48.510Z,14.90
2023-04-06T07:19:51.653Z,9.30
2023-04-06T07:21:54.512Z,8.70
2023-04-06T07:23:58.673Z,11.10
2023-04-06T07:26:01.453Z,11.10
2023-04-06T07:28:04.255Z,7.60
2023-04-06T07:30:08.466Z,7.90
2023-04-06T07:32:11.874Z,8.00
2023-04-06T07:34:14.727Z,6.80
2023-04-06T07:36:17.481Z,3.70
2023-04-06T07:38:20.241Z,4.80
2023-04-06T07:40:24.443Z,4.60
2023-04-06T07:42:27.279Z,3.30
2023-04-06T07:44:30.075Z,2.80
2023-04-06T07:46:33.011Z,1.00
2023-04-06T07:48:35.854Z,1.00
2023-04-06T07:50:38.663Z,1.60
2023-04-06T07:52:41.524Z,1.00
2023-04-06T07:54:44.322Z,1.00
2023-04-06T07:56:48.454Z,1.00
2023-04-06T07:58:53.794Z,1.00
2023-04-06T08:00:58.753Z,1.00
2023-04-06T08:03:01.701Z,1.00
2023-04-06T08:05:04.696Z,1.00
2023-04-06T08:07:07.802Z,1.00
2023-04-06T08:09:10.603Z,1.00
2023-04-06T08:11:13.393Z,1.00
2023-04-06T08:13:17.532Z,1.00
2023-04-06T08:15:20.394Z,1.00
2023-04-06T08:17:23.213Z,1.00
2023-04-06T08:19:26.283Z,1.00
2023-04-06T08:21:29.066Z,1.00
2023-04-06T08:23:31.839Z,1.00
2023-04-06T08:25:36.347Z,1.00
2023-04-06T08:27:39.123Z,1.00
2023-04-06T08:29:43.958Z,1.00
2023-04-06T08:31:46.835Z,1.00
2023-04-06T08:33:49.631Z,1.00
2023-04-06T08:35:52.465Z,1.00
2023-04-06T08:37:55.309Z,1.00
2023-04-06T08:39:58.091Z,1.00
2023-04-06T08:42:01.407Z,1.00
2023-04-06T08:44:04.379Z,1.00
2023-04-06T08:46:08.542Z,1.00
2023-04-06T08:48:11.370Z,1.00
2023-04-06T08:50:14.269Z,1.00
2023-04-06T08:52:17.064Z,1.00
2023-04-06T08:54:19.876Z,1.00
2023-04-06T08:56:23.136Z,1.00
2023-04-06T08:58:37.346Z,1.00
2023-04-06T09:00:41.182Z,1.00
2023-04-06T09:02:46.332Z,1.00
2023-04-06T09:04:50.616Z,1.00
2023-04-06T09:06:53.416Z,1.00
2023-04-06T09:08:57.583Z,1.00
2023-04-06T09:11:00.395Z,1.00
2023-04-06T09:13:06.934Z,1.00
2023-04-06T09:15:21.075Z,1.00
2023-04-06T09:17:25.318Z,1.00
2023-04-06T09:19:29.475Z,1.00
2023-04-06T09:21:32.607Z,1.00
2023-04-06T09:23:35.396Z,1.00
2023-04-06T09:25:38.235Z,1.00
2023-04-06T09:27:41.234Z,1.00
2023-04-06T09:29:44.057Z,1.00
2023-04-06T09:31:46.844Z,1.00
2023-04-06T09:33:49.641Z,1.00
2023-04-06T09:35:53.916Z,1.00
2023-04-06T09:37:57.453Z,1.00
2023-04-06T09:40:04.732Z,1.00
2023-04-06T09:42:07.554Z,1.00
2023-04-06T09:44:11.086Z,1.00
2023-04-06T09:46:14.373Z,1.00
2023-04-06T09:48:17.200Z,1.00
2023-04-06T09:50:20.130Z,1.00
2023-04-06T09:52:24.269Z,1.00
2023-04-06T09:54:27.811Z,1.00
2023-04-06T09:56:33.598Z,1.00
2023-04-06T09:58:36.989Z,1.00
2023-04-06T10:00:44.963Z,1.00
2023-04-06T10:02:50.894Z,1.00
2023-04-06T10:04:58.343Z,1.00
2023-04-06T10:07:01.358Z,1.00
2023-04-06T10:09:06.325Z,1.00
2023-04-06T10:11:09.362Z,1.00
2023-04-06T10:13:12.286Z,1.00
2023-04-06T10:15:15.313Z,1.00
2023-04-06T10:17:18.096Z,1.00
2023-04-06T10:19:24.043Z,1.00
2023-04-06T10:21:27.624Z,1.00
2023-04-06T10:23:33.203Z,1.00
2023-04-06T10:25:38.717Z,1.00
2023-04-06T10:27:41.498Z,1.00
2023-04-06T10:29:46.129Z,1.00
2023-04-06T10:31:48.954Z,1.00
2023-04-06T10:33:56.132Z,1.00
2023-04-06T10:35:59.061Z,1.00
2023-04-06T10:38:03.819Z,1.00
2023-04-06T10:40:08.119Z,1.00
2023-04-06T10:42:12.742Z,1.00
2023-04-06T10:44:19.655Z,1.00
2023-04-06T10:46:27.070Z,1.00
2023-04-06T10:48:38.934Z,1.00
2023-04-06T10:50:42.121Z,1.00
2023-04-06T10:52:46.372Z,1.00
2023-04-06T10:54:50.475Z,1.00
2023-04-06T10:56:53.393Z,1.00
2023-04-06T10:58:57.871Z,1.00
2023-04-06T11:01:01.458Z,1.00
2023-04-06T11:03:04.417Z,1.00
2023-04-06T11:05:08.318Z,1.00
2023-04-06T11:07:11.092Z,1.00
2023-04-06T11:09:13.966Z,1.00
2023-04-06T11:11:19.128Z,1.00
2023-04-06T11:13:21.899Z,1.00
2023-04-06T11:15:26.019Z,1.00
2023-04-06T11:17:29.142Z,1.00
2023-04-06T11:19:32.008Z,1.00
2023-04-06T11:21:36.727Z,1.00
2023-04-06T11:23:39.491Z,1.00
2023-04-06T11:25:52.497Z,1.00
2023-04-06T11:27:55.268Z,1.00
2023-04-06T11:29:58.027Z,1.00
2023-04-06T11:32:02.967Z,1.00
2023-04-06T11:34:11.384Z,1.00
2023-04-06T11:36:15.852Z,1.00
2023-04-06T11:38:20.374Z,1.00
2023-04-06T11:40:23.592Z,1.00
2023-04-06T11:42:26.925Z,1.00
2023-04-06T11:44:32.005Z,1.00
2023-04-06T11:46:34.884Z,1.00
2023-04-06T11:48:46.173Z,1.00
2023-04-06T11:50:49.603Z,1.00
2023-04-06T11:53:00.102Z,1.00
2023-04-06T11:55:12.577Z,1.00
2023-04-06T11:57:15.601Z,1.00
2023-04-06T11:59:18.403Z,1.00
2023-04-06T12:01:21.199Z,1.00
2023-04-06T12:03:24.105Z,1.00
2023-04-06T12:05:28.391Z,1.00
2023-04-06T12:07:31.354Z,1.00
2023-04-06T12:09:35.491Z,1.00
2023-04-06T12:11:38.356Z,1.00
2023-04-06T12:13:41.122Z,1.00
2023-04-06T12:15:43.931Z,1.00
2023-04-06T12:17:46.744Z,1.00
2023-04-06T12:19:49.529Z,1.00
2023-04-06T12:21:54.285Z,1.00
2023-04-06T12:23:57.037Z,1.00
2023-04-06T12:25:59.834Z,1.00
2023-04-06T12:28:02.599Z,1.00
2023-04-06T12:30:06.320Z,1.00
2023-04-06T12:32:09.407Z,1.00
2023-04-06T12:34:12.184Z,1.00
2023-04-06T12:36:15.115Z,1.00
2023-04-06T12:38:20.081Z,1.00
2023-04-06T12:40:22.834Z,1.00
2023-04-06T12:42:25.731Z,1.00
2023-04-06T12:44:28.494Z,1.00
2023-04-06T12:46:32.670Z,1.00
2023-04-06T12:48:36.481Z,1.00
2023-04-06T12:50:39.578Z,1.00
2023-04-06T12:52:42.357Z,1.00
2023-04-06T12:54:48.222Z,1.00
2023-04-06T12:56:51.447Z,1.00
2023-04-06T12:58:54.870Z,1.00
2023-04-06T13:00:57.863Z,1.00
2023-04-06T13:03:00.684Z,1.00
2023-04-06T13:05:03.738Z,1.00
2023-04-06T13:07:06.896Z,1.00
2023-04-06T13:09:09.683Z,1.00
2023-04-06T13:11:13.821Z,1.00
2023-04-06T13:13:16.647Z,1.00
2023-04-06T13:15:19.429Z,1.00
2023-04-06T13:17:23.548Z,1.00
2023-04-06T13:19:26.523Z,1.00
2023-04-06T13:21:29.315Z,1.00
2023-04-06T13:23:32.097Z,1.00
2023-04-06T13:25:34.898Z,1.00
2023-04-06T13:27:39.017Z,1.00
2023-04-06T13:29:41.853Z,1.00
2023-04-06T13:31:44.679Z,1.00
2023-04-06T13:33:47.486Z,1.00
2023-04-06T13:35:50.357Z,1.00
2023-04-06T13:37:53.173Z,1.00
2023-04-06T13:39:55.961Z,1.00
2023-04-06T13:41:58.725Z,1.00
2023-04-06T13:44:03.052Z,1.00
2023-04-06T13:46:06.373Z,1.00
2023-04-06T13:48:09.277Z,1.00
2023-04-06T13:50:12.656Z,1.00
2023-04-06T13:52:15.489Z,1.00
2023-04-06T13:54:18.332Z,1.00
2023-04-06T13:56:21.131Z,1.00
2023-04-06T13:58:23.911Z,1.00
2023-04-06T14:00:28.103Z,1.00
2023-04-06T14:02:31.508Z,1.00
2023-04-06T14:04:34.565Z,1.00
2023-04-06T14:06:37.355Z,1.00
2023-04-06T14:08:40.160Z,1.00
2023-04-06T14:10:43.372Z,1.00
2023-04-06T14:12:46.761Z,1.00
2023-04-06T14:14:49.527Z,1.00
2023-04-06T14:16:53.714Z,1.00
2023-04-06T14:18:58.701Z,1.00
2023-04-06T14:21:01.838Z,1.00
2023-04-06T14:23:04.936Z,1.00
2023-04-06T14:25:08.684Z,1.00
2023-04-06T14:27:12.061Z,1.00
2023-04-06T14:29:14.853Z,1.00
2023-04-06T14:31:18.008Z,1.00
2023-04-06T14:33:22.265Z,1.00
2023-04-06T14:35:25.878Z,1.00
2023-04-06T14:37:28.676Z,1.00
2023-04-06T14:39:31.662Z,1.00
2023-04-06T14:41:34.764Z,1.00
2023-04-06T14:43:37.571Z,1.00
2023-04-06T14:45:40.385Z,1.00
2023-04-06T14:47:43.201Z,1.00
2023-04-06T14:49:47.318Z,1.00
2023-04-06T14:51:50.119Z,1.00
2023-04-06T14:53:52.903Z,1.00
2023-04-06T14:55:55.793Z,1.00
2023-04-06T14:57:58.641Z,1.00
2023-04-06T15:00:01.442Z,1.00
2023-04-06T15:02:04.751Z,1.00
2023-04-06T15:04:07.833Z,1.00
2023-04-06T15:06:16.402Z,1.00
2023-04-06T15:08:21.493Z,1.00
2023-04-06T15:10:24.252Z,1.00
2023-04-06T15:12:27.062Z,1.00
2023-04-06T15:14:29.827Z,1.00
2023-04-06T15:16:33.578Z,1.00
2023-04-06T15:18:36.649Z,1.00
2023-04-06T15:20:39.529Z,1.00
2023-04-06T15:22:43.659Z,1.00
2023-04-06T15:24:46.447Z,1.00
2023-04-06T15:26:49.312Z,1.00
2023-04-06T15:28:52.147Z,1.00
2023-04-06T15:30:55.568Z,1.00
2023-04-06T15:32:59.514Z,1.00
2023-04-06T15:35:02.314Z,1.00
2023-04-06T15:37:05.843Z,1.00
2023-04-06T15:39:10.184Z,1.00
2023-04-06T15:41:14.911Z,1.00
2023-04-06T15:43:17.753Z,1.00
2023-04-06T15:45:20.773Z,1.00
2023-04-06T15:47:23.598Z,1.00
2023-04-06T15:49:26.477Z,1.00
2023-04-06T15:51:30.166Z,1.00
2023-04-06T15:53:33.448Z,1.00
2023-04-06T15:55:37.553Z,1.00
2023-04-06T15:57:41.417Z,1.00
2023-04-06T15:59:44.808Z,1.00
2023-04-06T16:01:47.786Z,1.00
2023-04-06T16:03:50.827Z,1.00
2023-04-06T16:08:02.215Z,1.00
2023-04-06T16:10:06.223Z,1.00
2023-04-06T16:12:10.729Z,1.00
2023-04-06T16:14:13.497Z,1.00
2023-04-06T16:16:16.771Z,1.00
2023-04-06T16:18:19.709Z,1.00
2023-04-06T16:20:22.477Z,1.00
2023-04-06T16:22:25.368Z,1.00
2023-04-06T16:24:28.254Z,1.00
2023-04-06T16:26:31.812Z,1.00
2023-04-06T16:28:36.159Z,1.00
2023-04-06T16:30:39.276Z,1.00
2023-04-06T16:32:43.390Z,1.00
2023-04-06T16:34:47.251Z,1.00
2023-04-06T16:36:50.099Z,1.00
2023-04-06T16:38:52.906Z,1.00
2023-04-06T16:41:01.559Z,1.00
2023-04-06T16:43:05.089Z,1.00
2023-04-06T16:45:11.315Z,1.00
2023-04-06T16:47:14.122Z,1.00
2023-04-06T16:49:19.293Z,1.00
2023-04-06T16:51:22.068Z,1.00
2023-04-06T16:53:24.841Z,1.00
2023-04-06T16:55:27.637Z,1.00
2023-04-06T16:57:30.404Z,1.00
2023-04-06T16:59:33.217Z,1.00
2023-04-06T17:01:37.491Z,1.00
2023-04-06T17:03:40.596Z,1.00
2023-04-06T17:05:45.259Z,1.00
2023-04-06T17:07:48.131Z,1.00
2023-04-06T17:09:50.946Z,1.00
2023-04-06T17:11:53.993Z,1.00
2023-04-06T17:13:57.368Z,1.00
2023-04-06T17:16:00.623Z,1.00
2023-04-06T17:18:05.004Z,1.00
2023-04-06T17:20:09.217Z,1.00
2023-04-06T17:22:12.035Z,1.00
2023-04-06T17:24:14.858Z,1.00
2023-04-06T17:26:17.653Z,1.00
2023-04-06T17:28:20.469Z,1.00
2023-04-06T17:30:23.660Z,1.00
2023-04-06T17:32:27.842Z,1.00
2023-04-06T17:34:32.127Z,1.00
2023-04-06T17:36:34.903Z,1.00
2023-04-06T17:38:38.374Z,1.00
2023-04-06T17:40:41.170Z,1.00
2023-04-06T17:42:44.048Z,1.00
2023-04-06T17:44:49.597Z,1.00
2023-04-06T17:46:54.295Z,1.00
2023-04-06T17:48:57.094Z,1.00
2023-04-06T17:51:01.299Z,1.00
2023-04-06T17:53:04.108Z,1.00
2023-04-06T17:55:07.262Z,1.00
2023-04-06T17:57:10.033Z,1.00
2023-04-06T17:59:13.022Z,1.00
2023-04-06T18:01:16.239Z,1.00
2023-04-06T18:03:19.151Z,1.00
2023-04-06T18:05:22.294Z,1.00
2023-04-06T18:07:26.449Z,1.00
2023-04-06T18:09:31.548Z,1.00
2023-04-06T18:11:34.388Z,1.00
2023-04-06T18:13:39.373Z,1.00
2023-04-06T18:15:43.206Z,1.00
2023-04-06T18:17:47.146Z,1.00
2023-04-06T18:19:50.067Z,1.00
2023-04-06T18:21:52.825Z,1.00
2023-04-06T18:23:57.005Z,1.00
2023-04-06T18:26:00.605Z,1.00
2023-04-06T18:28:03.544Z,1.00
2023-04-06T18:30:07.439Z,1.00
2023-04-06T18:32:10.277Z,1.00
2023-04-06T18:34:13.063Z,1.00
2023-04-06T18:36:15.991Z,1.00
2023-04-06T18:38:18.791Z,1.00
2023-04-06T18:40:44.059Z,1.00
2023-04-06T18:42:46.854Z,1.00
2023-04-06T18:44:49.821Z,1.00
2023-04-06T18:46:55.202Z,1.00
2023-04-06T18:48:58.503Z,1.00
2023-04-06T18:51:03.007Z,1.00
2023-04-06T18:53:05.977Z,1.00
2023-04-06T18:55:10.007Z,1.00
2023-04-06T18:57:14.295Z,1.00
2023-04-06T18:59:17.826Z,1.00
2023-04-06T19:01:24.462Z,1.00
2023-04-06T19:03:27.701Z,1.00
2023-04-06T19:05:30.659Z,1.00
2023-04-06T19:07:34.325Z,1.00
2023-04-06T19:09:37.120Z,1.00
2023-04-06T19:11:40.018Z,1.00
2023-04-06T19:13:46.366Z,1.00
2023-04-06T19:15:49.171Z,1.00
2023-04-06T19:17:52.045Z,1.00
2023-04-06T19:19:55.324Z,1.00
2023-04-06T19:22:00.606Z,1.00
2023-04-06T19:24:03.416Z,1.00
2023-04-06T19:26:06.911Z,1.00
2023-04-06T19:28:10.874Z,1.00
2023-04-06T19:30:15.281Z,1.00
2023-04-06T19:32:18.139Z,1.00
2023-04-06T19:34:21.073Z,1.00
2023-04-06T19:36:23.970Z,1.00
2023-04-06T19:38:27.932Z,1.00
2023-04-06T19:40:31.734Z,1.00
2023-04-06T19:42:34.642Z,1.00
2023-04-06T19:44:37.474Z,1.00
2023-04-06T19:46:42.466Z,1.00
2023-04-06T19:48:45.563Z,1.00
2023-04-06T19:50:48.306Z,1.00
2023-04-06T19:52:53.243Z,1.00
2023-04-06T19:54:56.022Z,1.00
2023-04-06T19:56:58.781Z,1.00
2023-04-06T19:59:01.649Z,1.00
2023-04-06T20:01:05.059Z,1.00
2023-04-06T20:03:09.358Z,1.00
2023-04-06T20:05:12.253Z,1.00
2023-04-06T20:07:15.002Z,1.00
2023-04-06T20:09:17.803Z,1.00
2023-04-06T20:11:21.258Z,1.00
2023-04-06T20:13:24.046Z,1.00
2023-04-06T20:15:26.897Z,1.00
2023-04-06T20:17:29.696Z,1.00
2023-04-06T20:19:33.830Z,1.00
2023-04-06T20:21:37.511Z,1.00
2023-04-06T20:23:41.762Z,1.00
2023-04-06T20:25:44.556Z,1.00
2023-04-06T20:27:47.329Z,1.00
2023-04-06T20:29:50.096Z,1.00
2023-04-06T20:31:53.116Z,1.00
2023-04-06T20:33:55.981Z,1.00
2023-04-06T20:36:01.222Z,1.00
2023-04-06T20:38:04.022Z,1.00
2023-04-06T20:40:08.139Z,1.00
2023-04-06T20:42:12.510Z,1.00
2023-04-06T20:44:15.412Z,1.00
2023-04-06T20:46:18.514Z,1.00
2023-04-06T20:48:21.288Z,1.00
2023-04-06T20:50:24.998Z,1.00
2023-04-06T20:52:29.166Z,1.00
2023-04-06T20:54:31.968Z,1.00
2023-04-06T20:56:34.797Z,1.00
2023-04-06T20:58:37.569Z,1.00
2023-04-06T21:00:40.359Z,1.00
2023-04-06T21:02:43.420Z,1.00
2023-04-06T21:04:46.385Z,1.00
2023-04-06T21:06:49.270Z,1.00
2023-04-06T21:08:53.480Z,1.00
2023-04-06T21:10:56.249Z,1.00
2023-04-06T21:12:59.029Z,1.00
2023-04-06T21:15:02.199Z,1.00
2023-04-06T21:17:05.017Z,1.00
2023-04-06T21:19:08.119Z,1.00
2023-04-06T21:21:11.026Z,1.00
2023-04-06T21:23:13.853Z,1.00
2023-04-06T21:25:18.098Z,1.00
2023-04-06T21:27:21.006Z,1.00
2023-04-06T21:29:23.832Z,1.00
2023-04-06T21:31:26.660Z,1.00
2023-04-06T21:33:29.457Z,1.00
2023-04-06T21:35:32.210Z,1.00
2023-04-06T21:37:34.976Z,1.00
2023-04-06T21:39:37.820Z,1.00
2023-04-06T21:41:41.934Z,1.00
2023-04-06T21:43:44.722Z,1.00
2023-04-06T21:45:50.250Z,1.00
2023-04-06T21:47:53.581Z,1.00
2023-04-06T21:49:56.381Z,1.00
2023-04-06T21:51:59.153Z,1.00
2023-04-06T21:54:01.944Z,1.00
2023-04-06T21:56:05.065Z,1.00
2023-04-06T21:58:09.176Z,1.00
2023-04-06T22:00:12.953Z,1.00
2023-04-06T22:02:15.972Z,1.00
2023-04-06T22:04:19.144Z,1.00
2023-04-06T22:06:24.059Z,1.00
2023-04-06T22:10:32.654Z,1.00
2023-04-06T22:12:35.589Z,1.00
2023-04-06T22:14:39.711Z,1.00
2023-04-06T22:16:42.618Z,1.00
2023-04-06T22:18:45.452Z,1.00
2023-04-06T22:20:48.231Z,1.00
2023-04-06T22:22:51.427Z,1.00
2023-04-06T22:24:54.237Z,1.00
2023-04-06T22:26:57.180Z,1.00
2023-04-06T22:28:59.985Z,1.00
2023-04-06T22:31:04.106Z,1.00
2023-04-06T22:33:07.197Z,1.00
2023-04-06T22:35:11.057Z,1.00
2023-04-06T22:37:13.830Z,1.00
2023-04-06T22:39:16.745Z,1.00
2023-04-06T22:41:19.523Z,1.00
2023-04-06T22:43:22.306Z,1.00
2023-04-06T22:45:25.903Z,1.00
2023-04-06T22:47:30.190Z,1.00
2023-04-06T22:49:33.037Z,1.00
2023-04-06T22:51:35.848Z,1.00
2023-04-06T22:53:38.630Z,1.00
2023-04-06T22:55:41.538Z,1.00
2023-04-06T22:57:44.358Z,1.00
2023-04-06T22:59:47.173Z,1.00
2023-04-06T23:01:50.060Z,1.00
2023-04-06T23:03:54.398Z,1.00
2023-04-06T23:05:57.221Z,1.00
2023-04-06T23:08:00.002Z,1.00
2023-04-06T23:10:03.173Z,1.00
2023-04-06T23:12:06.369Z,1.00
2023-04-06T23:14:09.180Z,1.00
2023-04-06T23:16:11.987Z,1.00
2023-04-06T23:18:14.773Z,1.00
2023-04-06T23:20:19.056Z,1.00
2023-04-06T23:22:21.819Z,1.00
2023-04-06T23:24:24.621Z,1.00
2023-04-06T23:26:27.585Z,1.00
2023-04-06T23:28:30.496Z,1.00
2023-04-06T23:30:34.008Z,1.00
2023-04-06T23:32:36.910Z,1.00
2023-04-06T23:34:39.781Z,1.00
2023-04-06T23:36:43.941Z,1.00
2023-04-06T23:38:46.730Z,1.00
2023-04-06T23:40:49.530Z,1.00
2023-04-06T23:42:52.326Z,1.00
2023-04-06T23:44:55.221Z,1.00
2023-04-06T23:46:58.106Z,1.00
2023-04-06T23:49:00.906Z,1.00
2023-04-06T23:51:03.781Z,1.00
2023-04-06T23:53:07.965Z,1.00
2023-04-06T23:55:11.207Z,1.00
2023-04-06T23:57:13.990Z,1.00
2023-04-06T23:59:16.797Z,1.00
